createdAt,value
2018-04-01T00:02:10.826Z,98866.12
2018-04-01T00:04:39.188Z,98864.89
2018-04-01T00:07:07.566Z,98868.84
2018-04-01T00:09:35.929Z,98867.78
2018-04-01T00:12:04.307Z,98876.05
2018-04-01T00:14:32.654Z,98874.97
2018-04-01T00:17:01.032Z,98876.49
2018-04-01T00:19:30.154Z,98880.26
2018-04-01T00:21:58.516Z,98883.14
2018-04-01T00:24:26.874Z,98882.88
2018-04-01T00:26:56.029Z,98880.95
2018-04-01T00:29:24.363Z,98883.82
2018-04-01T00:31:52.724Z,98894.34
2018-04-01T00:34:21.154Z,98895.48
2018-04-01T00:36:49.524Z,98891.84
2018-04-01T00:39:17.887Z,98890.18
2018-04-01T00:41:46.244Z,98897.75
2018-04-01T00:44:15.379Z,98895.93
2018-04-01T00:46:43.706Z,98886.90
2018-04-01T00:49:12.840Z,98886.96
2018-04-01T00:51:41.196Z,98880.58
2018-04-01T00:54:10.331Z,98882.13
2018-04-01T00:56:38.686Z,98885.05
2018-04-01T00:59:07.059Z,98896.16
2018-04-01T01:01:35.415Z,98901.48
2018-04-01T01:04:04.569Z,98894.92
2018-04-01T01:06:32.918Z,98897.67
2018-04-01T01:09:01.311Z,98896.52
2018-04-01T01:11:29.733Z,98894.55
2018-04-01T01:13:58.084Z,98895.08
2018-04-01T01:16:26.774Z,98894.27
2018-04-01T01:18:55.126Z,98891.45
2018-04-01T01:21:23.503Z,98889.77
2018-04-01T01:23:51.907Z,98887.95
2018-04-01T01:26:20.272Z,98887.30
2018-04-01T01:28:48.623Z,98884.16
2018-04-01T01:31:16.992Z,98879.45
2018-04-01T01:33:45.360Z,98884.80
2018-04-01T01:36:13.749Z,98884.31
2018-04-01T01:38:42.082Z,98885.98
2018-04-01T01:41:10.470Z,98889.58
2018-04-01T01:43:38.807Z,98894.81
2018-04-01T01:46:07.168Z,98892.05
2018-04-01T01:48:35.555Z,98891.34
2018-04-01T01:51:03.912Z,98891.43
2018-04-01T01:53:32.280Z,98890.41
2018-04-01T01:56:00.655Z,98892.27
2018-04-01T01:58:29.803Z,98894.45
2018-04-01T02:00:58.155Z,98896.82
2018-04-01T02:03:26.517Z,98898.79
2018-04-01T02:05:54.855Z,98904.95
2018-04-01T02:08:23.227Z,98900.38
2018-04-01T02:10:51.628Z,98900.12
2018-04-01T02:13:20.740Z,98901.24
2018-04-01T02:15:49.087Z,98899.41
2018-04-01T02:18:18.245Z,98898.24
2018-04-01T02:20:46.600Z,98902.05
2018-04-01T02:23:14.983Z,98893.15
2018-04-01T02:25:43.341Z,98896.87
2018-04-01T02:28:12.477Z,98894.00
2018-04-01T02:30:40.843Z,98899.91
2018-04-01T02:33:09.247Z,98903.70
2018-04-01T02:35:37.605Z,98906.46
2018-04-01T02:38:06.001Z,98899.19
2018-04-01T02:40:35.114Z,98903.75
2018-04-01T02:43:03.483Z,98903.33
2018-04-01T02:45:31.854Z,98897.52
2018-04-01T02:48:00.200Z,98897.98
2018-04-01T02:50:28.603Z,98888.83
2018-04-01T02:52:56.961Z,98892.82
2018-04-01T02:55:25.319Z,98889.11
2018-04-01T02:57:53.687Z,98881.52
2018-04-01T03:00:22.839Z,98886.80
2018-04-01T03:02:51.169Z,98886.52
2018-04-01T03:05:19.581Z,98888.80
2018-04-01T03:07:47.936Z,98893.64
2018-04-01T03:10:16.307Z,98898.27
2018-04-01T03:12:44.662Z,98892.97
2018-04-01T03:15:13.811Z,98891.50
2018-04-01T03:17:42.184Z,98892.42
2018-04-01T03:20:10.559Z,98896.09
2018-04-01T03:22:38.932Z,98899.62
2018-04-01T03:25:07.294Z,98897.03
2018-04-01T03:27:35.790Z,98894.11
2018-04-01T03:30:04.162Z,98901.38
2018-04-01T03:32:32.522Z,98906.51
2018-04-01T03:35:00.875Z,98901.02
2018-04-01T03:37:30.004Z,98900.40
2018-04-01T03:39:58.358Z,98905.08
2018-04-01T03:42:27.505Z,98899.89
2018-04-01T03:44:55.855Z,98908.88
2018-04-01T03:47:24.231Z,98905.00
2018-04-01T03:49:52.610Z,98900.95
2018-04-01T03:52:20.983Z,98899.59
2018-04-01T03:54:49.406Z,98889.79
2018-04-01T03:57:17.828Z,98899.03
2018-04-01T03:59:46.935Z,98900.95
2018-04-01T04:02:15.294Z,98895.85
2018-04-01T04:04:44.444Z,98905.14
2018-04-01T04:07:12.796Z,98908.49
2018-04-01T04:09:41.160Z,98907.59
2018-04-01T04:12:09.527Z,98909.05
2018-04-01T04:14:38.643Z,98910.30
2018-04-01T04:17:07.029Z,98918.69
2018-04-01T04:19:35.390Z,98912.41
2018-04-01T04:22:03.751Z,98913.42
2018-04-01T04:24:32.889Z,98920.23
2018-04-01T04:27:01.219Z,98920.83
2018-04-01T04:29:30.348Z,98924.50
2018-04-01T04:31:58.717Z,98921.00
2018-04-01T04:34:27.186Z,98920.78
2018-04-01T04:36:55.530Z,98922.81
2018-04-01T04:39:23.895Z,98923.59
2018-04-01T04:41:52.265Z,98925.28
2018-04-01T04:44:20.603Z,98929.16
2018-04-01T04:46:48.981Z,98930.55
2018-04-01T04:49:17.338Z,98925.27
2018-04-01T04:51:46.478Z,98924.00
2018-04-01T04:54:14.842Z,98922.59
2018-04-01T04:56:43.195Z,98927.66
2018-04-01T04:59:12.312Z,98926.30
2018-04-01T05:01:40.662Z,98927.97
2018-04-01T05:04:09.810Z,98924.87
2018-04-01T05:06:38.279Z,98936.38
2018-04-01T05:09:06.653Z,98940.44
2018-04-01T05:11:35.006Z,98941.69
2018-04-01T05:14:03.379Z,98941.80
2018-04-01T05:16:31.743Z,98945.36
2018-04-01T05:19:00.090Z,98951.17
2018-04-01T05:21:28.452Z,98965.42
2018-04-01T05:23:56.878Z,98965.02
2018-04-01T05:26:26.134Z,98963.53
2018-04-01T05:28:54.499Z,98971.95
2018-04-01T05:31:22.862Z,98970.41
2018-04-01T05:33:51.982Z,98970.63
2018-04-01T05:36:20.327Z,98974.69
2018-04-01T05:38:48.669Z,98981.41
2018-04-01T05:41:17.047Z,98983.86
2018-04-01T05:43:45.422Z,98987.46
2018-04-01T05:46:13.766Z,98992.97
2018-04-01T05:48:42.130Z,98995.87
2018-04-01T05:51:10.491Z,98994.83
2018-04-01T05:53:38.858Z,98999.86
2018-04-01T05:56:08.094Z,99002.52
2018-04-01T05:58:36.442Z,99007.05
2018-04-01T06:01:05.556Z,99012.17
2018-04-01T06:03:33.919Z,99012.87
2018-04-01T06:06:03.047Z,99008.22
2018-04-01T06:08:31.398Z,99011.44
2018-04-01T06:10:59.769Z,99016.28
2018-04-01T06:13:28.146Z,99017.34
2018-04-01T06:15:56.518Z,99026.88
2018-04-01T06:18:24.891Z,99025.92
2018-04-01T06:20:54.043Z,99031.20
2018-04-01T06:23:22.362Z,99034.19
2018-04-01T06:25:51.509Z,99030.41
2018-04-01T06:28:19.853Z,99025.87
2018-04-01T06:30:48.225Z,99030.55
2018-04-01T06:33:16.570Z,99034.76
2018-04-01T06:35:44.930Z,99034.47
2018-04-01T06:38:14.070Z,99039.03
2018-04-01T06:40:43.196Z,99044.89
2018-04-01T06:43:11.596Z,99049.27
2018-04-01T06:45:40.002Z,99046.91
2018-04-01T06:48:09.114Z,99055.00
2018-04-01T06:50:38.274Z,99058.09
2018-04-01T06:53:06.634Z,99057.24
2018-04-01T06:55:35.031Z,99074.34
2018-04-01T06:58:04.142Z,99083.72
2018-04-01T07:00:33.269Z,99086.84
2018-04-01T07:03:01.821Z,99082.87
2018-04-01T07:05:30.185Z,99086.13
2018-04-01T07:07:58.550Z,99093.66
2018-04-01T07:10:26.901Z,99098.66
2018-04-01T07:12:55.279Z,99100.41
2018-04-01T07:15:23.631Z,99103.42
2018-04-01T07:17:51.997Z,99098.73
2018-04-01T07:20:21.130Z,99103.03
2018-04-01T07:22:49.521Z,99101.45
2018-04-01T07:25:18.699Z,99102.17
2018-04-01T07:27:47.071Z,99101.13
2018-04-01T07:30:15.451Z,99109.71
2018-04-01T07:32:43.807Z,99112.70
2018-04-01T07:35:12.166Z,99118.73
2018-04-01T07:37:40.538Z,99130.61
2018-04-01T07:40:08.917Z,99142.71
2018-04-01T07:42:37.262Z,99144.56
2018-04-01T07:45:05.649Z,99141.30
2018-04-01T07:47:34.014Z,99142.75
2018-04-01T07:50:02.358Z,99150.84
2018-04-01T07:52:30.929Z,99155.13
2018-04-01T07:55:00.082Z,99161.22
2018-04-01T07:57:28.622Z,99158.13
2018-04-01T07:59:56.983Z,99154.80
2018-04-01T08:02:25.358Z,99155.37
2018-04-01T08:04:54.519Z,99159.07
2018-04-01T08:07:22.879Z,99162.70
2018-04-01T08:09:51.228Z,99163.57
2018-04-01T08:12:19.596Z,99162.86
2018-04-01T08:14:48.711Z,99169.84
2018-04-01T08:17:17.139Z,99175.61
2018-04-01T08:19:45.558Z,99172.91
2018-04-01T08:22:13.920Z,99175.53
2018-04-01T08:24:43.028Z,99176.89
2018-04-01T08:27:11.430Z,99181.41
2018-04-01T08:29:39.783Z,99185.68
2018-04-01T08:32:08.942Z,99191.80
2018-04-01T08:34:37.288Z,99191.41
2018-04-01T08:37:05.678Z,99199.13
2018-04-01T08:39:34.042Z,99197.53
2018-04-01T08:42:02.438Z,99203.04
2018-04-01T08:44:30.828Z,99208.27
2018-04-01T08:46:59.265Z,99212.86
2018-04-01T08:49:27.615Z,99215.87
2018-04-01T08:51:56.754Z,99219.77
2018-04-01T08:54:25.124Z,99226.66
2018-04-01T08:56:53.696Z,99232.77
2018-04-01T08:59:22.125Z,99234.14
2018-04-01T09:01:50.481Z,99234.92
2018-04-01T09:04:18.888Z,99233.98
2018-04-01T09:06:47.240Z,99239.91
2018-04-01T09:09:15.638Z,99244.82
2018-04-01T09:11:44.005Z,99246.64
2018-04-01T09:14:12.403Z,99248.81
2018-04-01T09:16:40.747Z,99250.12
2018-04-01T09:19:09.171Z,99259.45
2018-04-01T09:21:37.538Z,99256.23
2018-04-01T09:24:05.920Z,99263.45
2018-04-01T09:26:34.270Z,99266.32
2018-04-01T09:29:02.654Z,99275.53
2018-04-01T09:31:31.030Z,99277.55
2018-04-01T09:33:59.383Z,99283.61
2018-04-01T09:36:28.522Z,99280.30
2018-04-01T09:38:56.936Z,99284.53
2018-04-01T09:41:25.307Z,99291.11
2018-04-01T09:43:54.464Z,99289.17
2018-04-01T09:46:22.843Z,99295.59
2018-04-01T09:48:51.229Z,99299.14
2018-04-01T09:51:19.594Z,99306.59
2018-04-01T09:53:47.962Z,99304.34
2018-04-01T09:56:16.372Z,99310.00
2018-04-01T09:58:44.699Z,99308.59
2018-04-01T10:01:14.824Z,99317.27
2018-04-01T10:03:44.032Z,99319.12
2018-04-01T10:06:13.258Z,99322.77
2018-04-01T10:08:42.517Z,99330.55
2018-04-01T10:11:11.746Z,99334.06
2018-04-01T10:13:40.948Z,99327.93
2018-04-01T10:16:10.258Z,99338.50
2018-04-01T10:18:39.472Z,99334.53
2018-04-01T10:21:09.476Z,99337.34
2018-04-01T10:23:39.443Z,99344.16
2018-04-01T10:26:08.690Z,99345.87
2018-04-01T10:28:38.671Z,99347.06
2018-04-01T10:31:07.927Z,99357.59
2018-04-01T10:33:37.172Z,99348.24
2018-04-01T10:36:06.497Z,99353.40
2018-04-01T10:38:36.519Z,99356.25
2018-04-01T10:41:06.527Z,99360.45
2018-04-01T10:43:36.547Z,99370.41
2018-04-01T10:46:06.581Z,99377.55
2018-04-01T10:48:35.819Z,99378.27
2018-04-01T10:51:05.066Z,99381.13
2018-04-01T10:53:35.061Z,99387.30
2018-04-01T10:56:03.435Z,99384.77
2018-04-01T10:58:32.002Z,99389.51
2018-04-01T11:01:00.441Z,99392.58
2018-04-01T11:03:28.793Z,99397.77
2018-04-01T11:05:57.174Z,99402.00
2018-04-01T11:08:26.373Z,99414.16
2018-04-01T11:10:54.896Z,99414.73
2018-04-01T11:13:23.240Z,99418.16
2018-04-01T11:15:51.672Z,99415.59
2018-04-01T11:18:20.232Z,99428.58
2018-04-01T11:20:49.332Z,99426.98
2018-04-01T11:23:18.074Z,99432.78
2018-04-01T11:25:47.228Z,99426.56
2018-04-01T11:28:15.599Z,99431.48
2018-04-01T11:30:44.013Z,99430.79
2018-04-01T11:33:12.371Z,99436.75
2018-04-01T11:35:40.755Z,99437.06
2018-04-01T11:38:09.129Z,99443.09
2018-04-01T11:40:38.283Z,99438.81
2018-04-01T11:43:06.673Z,99453.58
2018-04-01T11:45:35.087Z,99450.98
2018-04-01T11:48:04.241Z,99458.98
2018-04-01T11:50:32.618Z,99466.55
2018-04-01T11:53:01.586Z,99472.25
2018-04-01T11:55:29.984Z,99475.42
2018-04-01T11:57:58.352Z,99480.20
2018-04-01T12:00:27.465Z,99480.70
2018-04-01T12:02:55.915Z,99474.97
2018-04-01T12:05:24.218Z,99479.01
2018-04-01T12:07:52.582Z,99472.20
2018-04-01T12:10:20.957Z,99469.00
2018-04-01T12:12:50.063Z,99464.44
2018-04-01T12:15:18.530Z,99475.16
2018-04-01T12:17:46.928Z,99465.33
2018-04-01T12:20:15.322Z,99469.22
2018-04-01T12:22:43.684Z,99473.54
2018-04-01T12:25:12.133Z,99475.74
2018-04-01T12:27:40.455Z,99474.04
2018-04-01T12:30:08.828Z,99478.06
2018-04-01T12:32:37.210Z,99482.22
2018-04-01T12:35:05.562Z,99485.11
2018-04-01T12:37:33.939Z,99485.88
2018-04-01T12:40:02.330Z,99483.73
2018-04-01T12:42:31.423Z,99479.98
2018-04-01T12:44:59.779Z,99494.96
2018-04-01T12:47:28.108Z,99494.07
2018-04-01T12:49:56.519Z,99490.41
2018-04-01T12:52:24.863Z,99493.77
2018-04-01T12:54:53.343Z,99498.20
2018-04-01T12:57:21.654Z,99501.66
2018-04-01T12:59:50.780Z,99503.05
2018-04-01T13:02:19.154Z,99504.23
2018-04-01T13:04:47.535Z,99509.83
2018-04-01T13:07:15.904Z,99514.78
2018-04-01T13:09:44.296Z,99515.88
2018-04-01T13:12:12.642Z,99515.65
2018-04-01T13:14:41.755Z,99517.06
2018-04-01T13:17:10.125Z,99515.84
2018-04-01T13:19:39.242Z,99521.06
2018-04-01T13:22:07.619Z,99519.44
2018-04-01T13:24:35.984Z,99528.06
2018-04-01T13:27:04.415Z,99530.84
2018-04-01T13:29:33.574Z,99541.72
2018-04-01T13:32:01.927Z,99538.94
2018-04-01T13:34:30.350Z,99542.67
2018-04-01T13:36:58.703Z,99546.08
2018-04-01T13:39:27.059Z,99554.53
2018-04-01T13:41:56.202Z,99559.64
2018-04-01T13:44:24.649Z,99566.72
2018-04-01T13:46:53.738Z,99565.84
2018-04-01T13:49:22.114Z,99564.34
2018-04-01T13:51:51.225Z,99564.71
2018-04-01T13:54:19.577Z,99571.31
2018-04-01T13:56:48.709Z,99566.95
2018-04-01T13:59:17.035Z,99570.20
2018-04-01T14:01:46.192Z,99565.14
2018-04-01T14:04:14.596Z,99577.22
2018-04-01T14:06:42.966Z,99574.74
2018-04-01T14:09:11.342Z,99576.74
2018-04-01T14:11:39.790Z,99581.68
2018-04-01T14:14:08.134Z,99590.55
2018-04-01T14:16:36.560Z,99580.53
2018-04-01T14:19:04.980Z,99586.19
2018-04-01T14:21:34.202Z,99587.55
2018-04-01T14:24:02.576Z,99596.37
2018-04-01T14:26:31.040Z,99598.20
2018-04-01T14:28:59.415Z,99611.09
2018-04-01T14:31:27.781Z,99611.72
2018-04-01T14:33:56.147Z,99609.23
2018-04-01T14:36:24.523Z,99603.75
2018-04-01T14:38:52.910Z,99611.61
2018-04-01T14:41:21.297Z,99612.16
2018-04-01T14:43:50.470Z,99614.63
2018-04-01T14:46:18.871Z,99616.94
2018-04-01T14:48:48.031Z,99615.58
2018-04-01T14:51:16.455Z,99627.13
2018-04-01T14:53:44.813Z,99620.87
2018-04-01T14:56:13.179Z,99624.09
2018-04-01T14:58:41.577Z,99626.21
2018-04-01T15:01:10.113Z,99617.15
2018-04-01T15:03:38.462Z,99617.65
2018-04-01T15:06:07.636Z,99614.02
2018-04-01T15:08:36.040Z,99623.89
2018-04-01T15:11:05.230Z,99616.12
2018-04-01T15:13:34.433Z,99611.59
2018-04-01T15:16:02.862Z,99611.11
2018-04-01T15:18:31.260Z,99615.48
2018-04-01T15:21:00.430Z,99614.69
2018-04-01T15:23:28.776Z,99612.69
2018-04-01T15:25:57.177Z,99613.16
2018-04-01T15:28:25.538Z,99617.40
2018-04-01T15:30:53.927Z,99628.27
2018-04-01T15:33:22.379Z,99625.58
2018-04-01T15:35:51.569Z,99629.01
2018-04-01T15:38:20.886Z,99630.29
2018-04-01T15:40:49.279Z,99624.00
2018-04-01T15:43:18.361Z,99641.77
2018-04-01T15:45:47.533Z,99636.68
2018-04-01T15:48:16.744Z,99654.24
2018-04-01T15:50:45.915Z,99651.30
2018-04-01T15:53:14.300Z,99646.66
2018-04-01T15:55:42.682Z,99644.69
2018-04-01T15:58:11.819Z,99647.62
2018-04-01T16:00:40.211Z,99645.98
2018-04-01T16:03:08.554Z,99652.99
2018-04-01T16:05:36.954Z,99653.58
2018-04-01T16:08:05.387Z,99652.14
2018-04-01T16:10:33.731Z,99656.77
2018-04-01T16:13:03.160Z,99654.94
2018-04-01T16:15:31.583Z,99658.42
2018-04-01T16:17:59.984Z,99666.69
2018-04-01T16:20:28.330Z,99662.95
2018-04-01T16:22:56.722Z,99665.28
2018-04-01T16:25:25.098Z,99664.08
2018-04-01T16:27:53.476Z,99663.86
2018-04-01T16:30:21.835Z,99666.06
2018-04-01T16:32:51.054Z,99669.91
2018-04-01T16:35:19.412Z,99669.41
2018-04-01T16:37:47.799Z,99676.72
2018-04-01T16:40:16.171Z,99669.09
2018-04-01T16:42:44.570Z,99673.22
2018-04-01T16:45:12.939Z,99676.14
2018-04-01T16:47:41.394Z,99687.08
2018-04-01T16:50:10.726Z,99691.91
2018-04-01T16:52:39.061Z,99691.91
2018-04-01T16:55:07.468Z,99692.33
2018-04-01T16:57:35.824Z,99699.54
2018-04-01T17:00:04.973Z,99703.67
2018-04-01T17:02:34.091Z,99711.62
2018-04-01T17:05:04.264Z,99711.55
2018-04-01T17:07:33.603Z,99714.64
2018-04-01T17:10:01.971Z,99724.23
2018-04-01T17:12:30.415Z,99724.77
2018-04-01T17:14:58.943Z,99724.81
2018-04-01T17:17:27.307Z,99736.22
2018-04-01T17:19:55.672Z,99741.55
2018-04-01T17:22:24.025Z,99735.03
2018-04-01T17:24:52.431Z,99743.44
2018-04-01T17:27:21.579Z,99736.44
2018-04-01T17:29:50.732Z,99742.22
2018-04-01T17:32:19.116Z,99735.98
2018-04-01T17:34:48.259Z,99744.09
2018-04-01T17:37:17.373Z,99742.05
2018-04-01T17:39:45.768Z,99740.58
2018-04-01T17:42:14.157Z,99749.00
2018-04-01T17:44:42.536Z,99749.00
2018-04-01T17:47:11.611Z,99753.53
2018-04-01T17:49:40.007Z,99751.55
2018-04-01T17:52:08.367Z,99752.50
2018-04-01T17:54:36.768Z,99756.03
2018-04-01T17:57:05.156Z,99759.25
2018-04-01T17:59:33.756Z,99757.34
2018-04-01T18:02:02.731Z,99763.06
2018-04-01T18:04:31.122Z,99768.75
2018-04-01T18:06:59.533Z,99770.90
2018-04-01T18:09:28.660Z,99769.42
2018-04-01T18:11:57.063Z,99775.35
2018-04-01T18:14:25.441Z,99783.46
2018-04-01T18:16:54.153Z,99790.61
2018-04-01T18:19:22.503Z,99797.92
2018-04-01T18:21:50.896Z,99794.94
2018-04-01T18:24:20.066Z,99806.34
2018-04-01T18:26:49.238Z,99805.78
2018-04-01T18:29:17.613Z,99812.34
2018-04-01T18:31:46.018Z,99815.20
2018-04-01T18:34:14.376Z,99815.00
2018-04-01T18:36:42.755Z,99820.98
2018-04-01T18:39:11.130Z,99818.02
2018-04-01T18:41:39.528Z,99821.64
2018-04-01T18:44:07.899Z,99827.00
2018-04-01T18:46:36.284Z,99823.20
2018-04-01T18:49:04.660Z,99832.84
2018-04-01T18:51:33.110Z,99835.55
2018-04-01T18:54:01.650Z,99833.80
2018-04-01T18:56:30.103Z,99837.94
2018-04-01T18:58:58.531Z,99833.97
2018-04-01T19:01:26.993Z,99838.81
2018-04-01T19:03:56.083Z,99832.17
2018-04-01T19:06:25.547Z,99833.20
2018-04-01T19:08:53.926Z,99838.94
2018-04-01T19:11:22.305Z,99848.55
2018-04-01T19:13:50.700Z,99859.72
2018-04-01T19:16:19.937Z,99862.26
2018-04-01T19:18:49.222Z,99858.84
2018-04-01T19:21:19.244Z,99869.95
2018-04-01T19:23:48.542Z,99864.78
2018-04-01T19:26:17.740Z,99863.91
2018-04-01T19:28:47.030Z,99863.91
2018-04-01T19:31:16.202Z,99870.97
2018-04-01T19:33:45.496Z,99869.20
2018-04-01T19:36:14.755Z,99874.92
2018-04-01T19:38:44.779Z,99876.92
2018-04-01T19:41:14.750Z,99887.58
2018-04-01T19:43:44.022Z,99882.94
2018-04-01T19:46:13.267Z,99882.27
2018-04-01T19:48:43.364Z,99886.80
2018-04-01T19:51:12.608Z,99882.42
2018-04-01T19:53:41.784Z,99878.77
2018-04-01T19:56:11.808Z,99887.79
2018-04-01T19:58:41.835Z,99888.20
2018-04-01T20:01:11.294Z,99898.57
2018-04-01T20:03:40.498Z,99894.81
2018-04-01T20:06:09.766Z,99901.66
2018-04-01T20:08:39.007Z,99894.59
2018-04-01T20:11:08.240Z,99897.67
2018-04-01T20:13:37.456Z,99905.97
2018-04-01T20:16:07.546Z,99902.48
2018-04-01T20:18:36.802Z,99901.99
2018-04-01T20:21:06.052Z,99897.87
2018-04-01T20:23:35.302Z,99902.15
2018-04-01T20:26:04.598Z,99905.56
2018-04-01T20:28:33.841Z,99898.65
2018-04-01T20:31:03.060Z,99901.37
2018-04-01T20:33:32.295Z,99898.71
2018-04-01T20:36:01.538Z,99896.84
2018-04-01T20:38:30.778Z,99900.44
2018-04-01T20:41:00.040Z,99900.12
2018-04-01T20:43:29.258Z,99900.95
2018-04-01T20:45:58.538Z,99900.60
2018-04-01T20:48:27.774Z,99898.59
2018-04-01T20:50:56.990Z,99905.55
2018-04-01T20:53:26.242Z,99908.64
2018-04-01T20:55:55.474Z,99899.02
2018-04-01T20:58:24.695Z,99896.49
2018-04-01T21:00:54.690Z,99904.75
2018-04-01T21:03:23.914Z,99894.22
2018-04-01T21:05:53.919Z,99897.23
2018-04-01T21:08:24.127Z,99896.76
2018-04-01T21:10:53.436Z,99899.66
2018-04-01T21:13:22.700Z,99905.79
2018-04-01T21:15:51.898Z,99906.30
2018-04-01T21:18:21.456Z,99904.53
2018-04-01T21:20:51.454Z,99905.48
2018-04-01T21:23:20.693Z,99911.64
2018-04-01T21:25:49.963Z,99906.63
2018-04-01T21:28:19.222Z,99904.02
2018-04-01T21:30:48.461Z,99905.91
2018-04-01T21:33:18.482Z,99909.80
2018-04-01T21:35:47.704Z,99908.45
2018-04-01T21:38:16.971Z,99907.78
2018-04-01T21:40:46.212Z,99908.69
2018-04-01T21:43:15.460Z,99908.85
2018-04-01T21:45:44.662Z,99915.77
2018-04-01T21:48:14.712Z,99913.50
2018-04-01T21:50:43.913Z,99908.13
2018-04-01T21:53:13.180Z,99911.60
2018-04-01T21:55:42.424Z,99907.75
2018-04-01T21:58:11.649Z,99905.67
2018-04-01T22:00:40.987Z,99900.44
2018-04-01T22:03:10.257Z,99899.95
2018-04-01T22:05:39.491Z,99901.39
2018-04-01T22:08:08.696Z,99901.67
2018-04-01T22:10:37.902Z,99909.67
2018-04-01T22:13:07.114Z,99904.68
2018-04-01T22:15:36.351Z,99903.05
2018-04-01T22:18:05.562Z,99900.78
2018-04-01T22:20:35.560Z,99893.08
2018-04-01T22:23:12.328Z,99888.30
2018-04-01T22:25:41.575Z,99897.29
2018-04-01T22:28:10.790Z,99897.36
2018-04-01T22:30:40.085Z,99890.14
2018-04-01T22:33:10.045Z,99896.34
2018-04-01T22:35:40.051Z,99896.45
2018-04-01T22:38:09.512Z,99896.78
2018-04-01T22:40:38.731Z,99900.16
2018-04-01T22:43:07.941Z,99901.15
2018-04-01T22:45:37.170Z,99898.49
2018-04-01T22:48:07.151Z,99900.20
2018-04-01T22:50:36.367Z,99893.29
2018-04-01T22:53:05.629Z,99895.33
2018-04-01T22:55:34.842Z,99897.55
2018-04-01T22:58:04.096Z,99896.34
2018-04-01T23:00:33.369Z,99889.04
2018-04-01T23:03:02.551Z,99888.09
2018-04-01T23:05:31.762Z,99887.89
2018-04-01T23:08:01.007Z,99878.30
2018-04-01T23:10:30.248Z,99879.30
2018-04-01T23:12:59.500Z,99881.16
2018-04-01T23:15:28.697Z,99877.55
2018-04-01T23:17:58.039Z,99875.69
2018-04-01T23:20:27.297Z,99885.23
2018-04-01T23:22:56.501Z,99879.27
2018-04-01T23:25:26.003Z,99885.07
2018-04-01T23:27:55.958Z,99880.69
2018-04-01T23:30:25.304Z,99883.23
2018-04-01T23:32:55.338Z,99880.63
2018-04-01T23:35:24.568Z,99881.22
2018-04-01T23:37:53.829Z,99879.91
2018-04-01T23:40:23.090Z,99884.45
2018-04-01T23:42:53.145Z,99882.45
2018-04-01T23:45:22.339Z,99883.41
2018-04-01T23:47:51.561Z,99883.37
2018-04-01T23:50:20.756Z,99884.61
2018-04-01T23:52:49.979Z,99880.39
2018-04-01T23:55:19.184Z,99879.42
2018-04-01T23:57:48.428Z,99884.75
